7°C Temp
4°C Dewpoint
81% Humidity
Temperature
8 KM/H
5 MPH
4 KTS
290°
West North
West

Wind Speed
Clear
Conditions
Pressure 1012.92 (hPa) - 29.91 (in)
Visibility 6.2 (mi) - 10.0 (km)

Current Conditions
UKLI
Location 9(km)
Metar :UKLI 221800Z 29002MPS 240V340 CAVOK 07/04 Q1013 R28/090070 NOSIG
Fri 22nd October 21:00 pm

Airport